Time;durP1;ratioP1;P1;durP2;ratioP2;P2;SDS_P1;SDS_P2;PMS_P1;PMS_P2;Temp;Humidity;BMP_temperature;BMP_pressure;BME280_temperature;BME280_humidity;BME280_pressure;Samples;Min_cycle;Max_cycle;Signal;HPM_P1;HPM_P2
2023/08/25 00:02:20;;;;;;;3.77;3.30;;;;;;;20.72;85.43;97595.63;5046130;28;20481;-72
2023/08/25 00:04:47;;;;;;;3.53;3.23;;;;;;;20.78;85.20;97593.69;5042836;28;20847;-72
2023/08/25 00:07:14;;;;;;;3.40;2.90;;;;;;;20.89;84.52;97603.56;5032510;28;21070;-72
2023/08/25 00:09:41;;;;;;;3.87;3.27;;;;;;;20.82;84.75;97608.53;5033923;28;20467;-72
2023/08/25 00:12:07;;;;;;;3.27;2.97;;;;;;;20.83;84.61;97601.09;5045057;28;20989;-72
2023/08/25 00:14:36;;;;;;;3.70;3.40;;;;;;;20.91;84.16;97603.28;5041851;28;21027;-73
2023/08/25 00:17:04;;;;;;;3.63;3.33;;;;;;;20.99;84.15;97602.72;5032940;28;20548;-73
2023/08/25 00:19:31;;;;;;;3.60;3.30;;;;;;;21.05;83.77;97607.09;5037442;28;20890;-73
2023/08/25 00:21:58;;;;;;;3.57;3.30;;;;;;;21.02;83.87;97613.16;5031050;28;21029;-73
2023/08/25 00:24:25;;;;;;;3.20;2.90;;;;;;;20.96;84.24;97612.34;5033648;28;20482;-73
2023/08/25 00:26:52;;;;;;;3.90;3.60;;;;;;;20.82;84.85;97611.28;5036547;28;20494;-73
2023/08/25 00:29:20;;;;;;;3.90;3.40;;;;;;;20.71;85.84;97604.16;5036214;28;20474;-73
2023/08/25 00:31:48;;;;;;;4.10;3.40;;;;;;;20.77;85.63;97608.56;5034020;28;20475;-73
2023/08/25 00:34:15;;;;;;;3.33;3.13;;;;;;;20.75;86.06;97603.34;5033501;28;20493;-73
2023/08/25 00:36:41;;;;;;;4.10;3.60;;;;;;;20.83;85.14;97601.91;5036509;28;20461;-73
2023/08/25 00:39:08;;;;;;;3.77;3.47;;;;;;;20.91;84.64;97601.34;5036409;28;20473;-73
2023/08/25 00:41:35;;;;;;;4.27;3.87;;;;;;;20.86;84.43;97598.59;5040918;28;20517;-73
2023/08/25 00:44:02;;;;;;;3.70;3.40;;;;;;;20.96;84.00;97597.78;5031904;28;20484;-73
2023/08/25 00:46:30;;;;;;;3.60;3.30;;;;;;;20.95;83.89;97590.63;5041145;28;20850;-73
2023/08/25 00:48:58;;;;;;;3.27;3.03;;;;;;;20.90;83.61;97601.63;5035244;28;20553;-73
2023/08/25 00:51:26;;;;;;;3.53;3.20;;;;;;;20.95;83.45;97574.09;5035427;28;20471;-73
2023/08/25 00:53:53;;;;;;;3.40;3.20;;;;;;;21.04;82.48;97586.19;5036469;28;20548;-73
2023/08/25 00:56:20;;;;;;;3.87;3.53;;;;;;;21.12;82.28;97588.34;5030204;28;20528;-73
2023/08/25 00:58:47;;;;;;;3.40;3.20;;;;;;;21.23;81.38;97578.16;5031990;28;20549;-73
2023/08/25 01:01:14;;;;;;;3.30;3.10;;;;;;;21.26;80.72;97575.66;5030429;28;20557;-73
2023/08/25 01:03:41;;;;;;;3.23;2.93;;;;;;;21.22;80.82;97566.31;5050048;28;20487;-73
2023/08/25 01:06:09;;;;;;;4.43;3.90;;;;;;;21.27;80.37;97571.81;5035422;28;20495;-73
2023/08/25 01:08:39;;;;;;;3.60;3.30;;;;;;;21.30;80.22;97575.94;5037902;28;20546;-73
2023/08/25 01:11:18;;;;;;;3.73;3.43;;;;;;;21.32;80.44;97574.53;5035964;28;20538;-73
2023/08/25 01:13:49;;;;;;;4.30;3.63;;;;;;;21.30;80.86;97579.50;5035049;28;20562;-73
2023/08/25 01:16:18;;;;;;;3.50;3.30;;;;;;;21.34;80.36;97580.59;5041207;28;20459;-73
2023/08/25 01:18:45;;;;;;;4.07;3.50;;;;;;;21.39;80.54;97583.31;5038612;28;20564;-73
2023/08/25 01:21:13;;;;;;;4.03;3.63;;;;;;;21.29;80.74;97580.59;5033351;28;20524;-74
2023/08/25 01:23:50;;;;;;;4.00;3.70;;;;;;;21.19;80.88;97579.78;5041078;28;20450;-73
2023/08/25 01:26:19;;;;;;;3.50;3.20;;;;;;;21.19;80.96;97577.03;5033337;28;20657;-73
2023/08/25 01:28:50;;;;;;;3.63;3.43;;;;;;;21.17;81.09;97565.47;5034923;28;20471;-73
2023/08/25 01:31:19;;;;;;;3.73;3.37;;;;;;;21.14;81.31;97567.69;5034013;28;21082;-73
2023/08/25 01:33:46;;;;;;;3.97;3.67;;;;;;;20.99;81.62;97567.75;5046965;28;20473;-71
2023/08/25 01:36:18;;;;;;;3.57;3.37;;;;;;;20.86;81.70;97568.34;5034069;28;20467;-71
2023/08/25 01:38:48;;;;;;;4.40;3.43;;;;;;;20.93;82.47;97568.88;5030464;28;20452;-71
2023/08/25 01:41:21;;;;;;;3.50;3.20;;;;;;;20.98;81.74;97568.03;5036213;28;20485;-71
2023/08/25 01:43:49;;;;;;;5.30;3.63;;;;;;;20.92;81.54;97563.66;5041248;28;20453;-71
2023/08/25 01:46:18;;;;;;;3.77;3.07;;;;;;;20.93;81.49;97570.81;5038642;28;20551;-71
2023/08/25 01:48:47;;;;;;;3.30;3.10;;;;;;;20.99;81.59;97566.94;5034395;28;21004;-71
2023/08/25 01:51:14;;;;;;;3.07;2.87;;;;;;;20.97;80.88;97569.16;5033355;28;20562;-71
2023/08/25 01:53:43;;;;;;;3.63;3.00;;;;;;;21.02;80.35;97571.88;5038510;28;20494;-71
2023/08/25 01:56:09;;;;;;;3.00;2.80;;;;;;;21.00;79.79;97577.66;5036758;28;20828;-71
2023/08/25 01:58:38;;;;;;;3.43;3.13;;;;;;;20.97;79.63;97572.72;5039326;28;20808;-71
2023/08/25 02:01:04;;;;;;;3.30;3.07;;;;;;;21.10;78.72;97577.63;5041310;28;20474;-71
2023/08/25 02:03:31;;;;;;;4.70;2.97;;;;;;;21.00;79.17;97574.91;5030466;28;20572;-71
2023/08/25 02:05:58;;;;;;;3.20;3.00;;;;;;;21.18;78.21;97578.13;5032896;28;20579;-71
2023/08/25 02:08:24;;;;;;;2.90;2.70;;;;;;;21.27;77.87;97565.47;5030930;28;20516;-71
2023/08/25 02:10:52;;;;;;;3.97;3.20;;;;;;;21.32;76.87;97560.78;5035873;28;20456;-72
2023/08/25 02:13:19;;;;;;;3.20;2.90;;;;;;;21.31;76.87;97561.06;5039501;28;20503;-71
2023/08/25 02:15:49;;;;;;;3.07;2.87;;;;;;;21.34;76.83;97564.06;5036825;28;20466;-72
2023/08/25 02:18:16;;;;;;;3.00;2.80;;;;;;;21.42;76.90;97568.16;5026683;28;20452;-72
2023/08/25 02:20:43;;;;;;;3.30;2.90;;;;;;;21.50;76.80;97558.47;5027837;28;20463;-73
2023/08/25 02:23:09;;;;;;;3.07;2.87;;;;;;;21.51;76.48;97565.63;5041032;28;20518;-71
2023/08/25 02:25:36;;;;;;;3.80;3.10;;;;;;;21.50;76.49;97558.47;5030444;28;20459;-71
2023/08/25 02:28:03;;;;;;;4.13;3.20;;;;;;;21.46;77.04;97547.19;5034502;28;20494;-72
2023/08/25 02:30:30;;;;;;;2.93;2.73;;;;;;;21.49;76.69;97554.88;5030347;28;20518;-71
2023/08/25 02:32:59;;;;;;;3.47;3.17;;;;;;;21.49;76.78;97557.63;5030759;28;20983;-71
2023/08/25 02:35:26;;;;;;;4.03;2.90;;;;;;;21.52;77.06;97553.50;5041364;28;20550;-72
2023/08/25 02:37:58;;;;;;;2.80;2.60;;;;;;;21.46;76.77;97553.50;5038092;28;20536;-72
2023/08/25 02:40:25;;;;;;;3.67;3.00;;;;;;;21.46;77.33;97544.44;5031759;28;20446;-71
2023/08/25 02:42:53;;;;;;;2.93;2.70;;;;;;;21.50;76.78;97541.94;5029171;28;21034;-71
2023/08/25 02:45:19;;;;;;;3.60;2.83;;;;;;;21.50;76.36;97552.94;5029924;28;20539;-72
2023/08/25 02:47:46;;;;;;;3.00;2.70;;;;;;;21.56;76.03;97538.88;5036081;28;21070;-71
2023/08/25 02:50:15;;;;;;;3.00;2.80;;;;;;;21.71;75.65;97537.97;5030088;28;20984;-71
2023/08/25 02:52:41;;;;;;;3.50;2.90;;;;;;;21.56;75.75;97533.38;5034850;28;20474;-71
2023/08/25 02:55:08;;;;;;;3.93;3.63;;;;;;;21.56;75.93;97527.84;5036816;28;20813;-71
2023/08/25 02:57:35;;;;;;;3.43;3.13;;;;;;;21.63;75.83;97527.53;5047778;28;20439;-72
2023/08/25 03:00:03;;;;;;;3.17;2.80;;;;;;;21.53;76.54;97522.09;5033339;28;20479;-72
2023/08/25 03:02:30;;;;;;;2.87;2.67;;;;;;;21.44;76.42;97524.66;5029992;28;20572;-71
2023/08/25 03:04:58;;;;;;;3.80;3.00;;;;;;;21.31;77.38;97525.25;5036943;28;20608;-71
2023/08/25 03:07:26;;;;;;;3.60;3.30;;;;;;;21.23;77.63;97534.94;5038930;28;20536;-71
2023/08/25 03:09:52;;;;;;;3.60;3.30;;;;;;;21.02;78.17;97525.09;5029890;28;20509;-72
2023/08/25 03:12:19;;;;;;;3.20;3.00;;;;;;;21.08;77.65;97521.22;5041730;28;20547;-71
2023/08/25 03:14:46;;;;;;;3.43;3.13;;;;;;;21.19;77.65;97510.97;5041057;28;20794;-72
2023/08/25 03:17:13;;;;;;;3.90;3.60;;;;;;;21.11;77.41;97517.91;5045879;28;20469;-72
2023/08/25 03:19:41;;;;;;;4.20;2.97;;;;;;;21.16;76.83;97506.84;5034784;28;20475;-71
2023/08/25 03:22:08;;;;;;;3.37;3.00;;;;;;;21.19;76.75;97509.03;5028867;28;20476;-71
2023/08/25 03:24:36;;;;;;;5.50;3.20;;;;;;;21.15;77.13;97499.69;5042303;28;21027;-71
2023/08/25 03:27:03;;;;;;;3.97;3.53;;;;;;;21.23;77.25;97504.66;5038069;28;20602;-72
2023/08/25 03:29:31;;;;;;;4.17;3.30;;;;;;;21.10;77.62;97503.34;5036494;28;20538;-72
2023/08/25 03:31:58;;;;;;;3.50;3.20;;;;;;;21.02;77.93;97503.09;5028593;28;20566;-71
2023/08/25 03:34:25;;;;;;;3.80;3.33;;;;;;;21.01;78.21;97490.44;5031148;28;20455;-71
2023/08/25 03:36:52;;;;;;;3.60;3.30;;;;;;;21.05;78.55;97491.53;5046718;28;20556;-72
2023/08/25 03:39:19;;;;;;;3.30;3.00;;;;;;;21.03;78.15;97497.31;5038798;28;20543;-72
2023/08/25 03:41:48;;;;;;;3.53;3.20;;;;;;;20.91;79.10;97510.56;5034108;28;20480;-73
2023/08/25 03:44:14;;;;;;;4.00;3.03;;;;;;;20.98;78.52;97499.25;5040128;28;21697;-72
2023/08/25 03:46:41;;;;;;;3.47;3.20;;;;;;;20.88;78.87;97496.53;5038947;28;20598;-72
2023/08/25 03:49:09;;;;;;;3.97;3.70;;;;;;;20.90;78.89;97492.41;5036032;28;20539;-71
2023/08/25 03:51:36;;;;;;;5.43;3.67;;;;;;;20.72;79.80;97487.53;5036945;28;20809;-71
2023/08/25 03:54:03;;;;;;;3.67;3.37;;;;;;;20.84;79.75;97476.19;5028389;28;20467;-71
2023/08/25 03:56:30;;;;;;;3.80;3.37;;;;;;;20.75;79.76;97474.06;5040657;28;20456;-71
2023/08/25 03:58:58;;;;;;;3.40;3.10;;;;;;;20.67;80.09;97471.88;5030045;28;20986;-72
2023/08/25 04:01:24;;;;;;;3.70;3.50;;;;;;;20.67;80.26;97466.38;5033464;28;20574;-72
2023/08/25 04:03:51;;;;;;;4.93;4.00;;;;;;;20.61;80.58;97453.75;5041233;28;20465;-71
2023/08/25 04:06:18;;;;;;;5.27;3.90;;;;;;;20.58;81.05;97459.81;5048530;28;20455;-71
2023/08/25 04:08:45;;;;;;;3.90;3.60;;;;;;;20.51;80.92;97456.53;5046120;28;20488;-71
2023/08/25 04:11:12;;;;;;;3.90;3.60;;;;;;;20.56;80.54;97456.50;5037875;28;20527;-72
2023/08/25 04:13:39;;;;;;;3.90;3.50;;;;;;;20.45;81.19;97449.41;5045125;28;20558;-71
2023/08/25 04:16:07;;;;;;;4.67;3.60;;;;;;;20.44;81.46;97442.28;5039129;28;20525;-71
2023/08/25 04:18:34;;;;;;;5.63;3.17;;;;;;;20.54;81.35;97444.97;5043223;28;20475;-72
2023/08/25 04:21:01;;;;;;;3.73;3.37;;;;;;;20.55;80.54;97454.88;5039998;28;20527;-71
2023/08/25 04:23:28;;;;;;;3.60;3.30;;;;;;;20.76;80.70;97444.63;5032652;28;20454;-71
2023/08/25 04:25:56;;;;;;;4.07;3.77;;;;;;;20.60;80.15;97441.09;5043511;28;20459;-72
2023/08/25 04:28:24;;;;;;;4.70;3.93;;;;;;;20.61;80.32;97440.00;5045346;28;20499;-72
2023/08/25 04:30:52;;;;;;;4.00;3.33;;;;;;;20.53;80.42;97437.00;5032749;28;20481;-72
2023/08/25 04:33:20;;;;;;;4.10;3.80;;;;;;;20.62;80.07;97449.88;5033327;28;20610;-71
2023/08/25 04:35:47;;;;;;;3.77;3.47;;;;;;;20.57;80.59;97441.66;5034340;28;20490;-71
2023/08/25 04:38:14;;;;;;;3.90;3.60;;;;;;;20.65;79.74;97448.50;5032408;28;20462;-72
2023/08/25 04:40:41;;;;;;;3.80;3.50;;;;;;;20.58;80.05;97443.31;5033590;28;20491;-71
2023/08/25 04:43:08;;;;;;;4.17;3.77;;;;;;;20.76;79.45;97439.94;5045858;28;20869;-71
2023/08/25 04:45:34;;;;;;;4.67;3.80;;;;;;;20.75;79.19;97435.53;5029277;28;21461;-72
2023/08/25 04:48:01;;;;;;;3.60;3.27;;;;;;;20.55;79.60;97432.88;5034944;28;20518;-71
2023/08/25 04:50:29;;;;;;;5.23;3.20;;;;;;;20.67;79.81;97416.88;5032539;28;20451;-73
2023/08/25 04:52:56;;;;;;;4.60;3.33;;;;;;;20.59;79.39;97420.19;5031099;28;20517;-71
2023/08/25 04:55:23;;;;;;;4.20;3.80;;;;;;;20.71;79.56;97417.97;5037837;28;20480;-70
2023/08/25 04:57:50;;;;;;;4.10;3.80;;;;;;;20.62;80.17;97422.38;5029465;28;20464;-70
2023/08/25 05:00:17;;;;;;;4.20;3.70;;;;;;;20.69;79.69;97422.91;5031658;28;20450;-71
2023/08/25 05:02:46;;;;;;;5.20;4.20;;;;;;;20.76;79.17;97411.63;5034439;28;20497;-70
2023/08/25 05:05:12;;;;;;;3.80;3.50;;;;;;;20.76;79.02;97415.19;5048928;28;20847;-71
2023/08/25 05:07:41;;;;;;;3.80;3.50;;;;;;;20.76;79.31;97423.44;5031283;28;20473;-72
2023/08/25 05:10:09;;;;;;;4.73;4.30;;;;;;;21.00;78.61;97411.75;5039509;28;20468;-72
2023/08/25 05:12:36;;;;;;;5.30;3.50;;;;;;;20.98;79.56;97402.94;5037362;28;20514;-71
2023/08/25 05:15:03;;;;;;;5.67;3.70;;;;;;;20.88;78.31;97401.06;5029120;28;20931;-72
2023/08/25 05:17:30;;;;;;;4.13;3.40;;;;;;;20.97;77.99;97395.81;5035624;28;20564;-72
2023/08/25 05:19:56;;;;;;;3.90;3.60;;;;;;;21.11;77.23;97407.81;5030447;28;20452;-72
2023/08/25 05:22:23;;;;;;;3.70;3.40;;;;;;;21.17;76.67;97411.34;5031656;28;20471;-71
2023/08/25 05:24:52;;;;;;;6.00;3.47;;;;;;;21.27;76.62;97405.81;5032909;28;20550;-71
2023/08/25 05:27:19;;;;;;;3.70;3.40;;;;;;;21.53;75.14;97411.94;5030661;28;20517;-70
2023/08/25 05:29:45;;;;;;;4.00;3.40;;;;;;;21.77;74.31;97421.06;5029316;28;20487;-70
2023/08/25 05:32:12;;;;;;;3.27;3.07;;;;;;;21.97;73.54;97428.34;5029060;28;20844;-70
2023/08/25 05:34:39;;;;;;;3.50;3.20;;;;;;;22.17;72.15;97427.34;5030713;28;20455;-70
2023/08/25 05:37:06;;;;;;;4.30;3.13;;;;;;;22.42;71.42;97424.28;5030837;28;20482;-71
2023/08/25 05:39:33;;;;;;;3.40;3.00;;;;;;;22.69;69.90;97438.34;5034374;28;21076;-69
2023/08/25 05:42:01;;;;;;;4.83;3.60;;;;;;;22.95;69.11;97438.84;5033327;28;20470;-71
2023/08/25 05:44:28;;;;;;;5.03;3.67;;;;;;;23.18;68.85;97433.56;5031426;28;20460;-70
2023/08/25 05:46:55;;;;;;;3.27;2.97;;;;;;;23.39;68.11;97446.75;5028000;28;20455;-72
2023/08/25 05:49:21;;;;;;;3.47;2.83;;;;;;;23.61;67.84;97453.66;5030286;28;20540;-73
2023/08/25 05:51:51;;;;;;;3.10;2.90;;;;;;;23.63;68.35;97459.69;5033575;28;20551;-70
2023/08/25 05:54:18;;;;;;;3.30;3.10;;;;;;;23.71;68.61;97478.38;5033051;28;20544;-71
2023/08/25 05:56:44;;;;;;;3.70;3.40;;;;;;;23.78;68.87;97485.13;5033308;28;20444;-73
2023/08/25 05:59:12;;;;;;;4.60;3.50;;;;;;;23.69;69.08;97499.97;5030452;28;20956;-79
2023/08/25 06:01:40;;;;;;;4.80;3.83;;;;;;;23.42;69.83;97517.97;5033268;28;20495;-74
2023/08/25 06:04:07;;;;;;;4.50;3.60;;;;;;;23.12;70.67;97523.91;5046615;28;20510;-74
2023/08/25 06:06:34;;;;;;;4.33;3.83;;;;;;;22.89;71.54;97535.81;5030275;28;20451;-74
2023/08/25 06:09:01;;;;;;;3.70;3.40;;;;;;;22.55;73.25;97578.06;5030176;28;20496;-73
2023/08/25 06:11:28;;;;;;;3.60;3.30;;;;;;;22.33;73.41;97621.88;5027048;28;20475;-74
2023/08/25 06:13:55;;;;;;;3.57;3.17;;;;;;;22.15;73.22;97659.19;5029935;28;20448;-73
2023/08/25 06:16:24;;;;;;;4.07;3.67;;;;;;;22.12;74.22;97648.75;5036327;28;20448;-73
2023/08/25 06:18:50;;;;;;;4.22;3.30;;;;;;;22.01;74.61;97658.22;5049477;28;20436;-73
2023/08/25 06:21:17;;;;;;;4.17;3.77;;;;;;;21.84;76.99;97696.28;5036733;28;20221;-73
2023/08/25 06:23:44;;;;;;;5.43;3.77;;;;;;;21.71;78.43;97752.84;5029548;28;21003;-74
2023/08/25 06:26:12;;;;;;;4.20;3.80;;;;;;;21.56;78.38;97745.44;5035810;28;20981;-74
2023/08/25 06:28:39;;;;;;;5.07;4.47;;;;;;;21.36;81.04;97718.81;5029840;28;20478;-75
2023/08/25 06:31:08;;;;;;;5.43;4.80;;;;;;;21.25;81.44;97678.63;5029196;28;20491;-76
2023/08/25 06:33:38;;;;;;;6.23;5.00;;;;;;;21.06;82.62;97686.63;5028796;28;20455;-75
2023/08/25 06:36:05;;;;;;;5.20;4.73;;;;;;;20.92;82.66;97702.06;5028905;28;20457;-75
2023/08/25 06:38:32;;;;;;;5.30;4.80;;;;;;;20.85;83.33;97706.19;5049101;28;20532;-75
2023/08/25 06:40:59;;;;;;;5.60;5.10;;;;;;;20.76;84.08;97712.25;5035837;28;21311;-75
2023/08/25 06:43:26;;;;;;;5.07;4.57;;;;;;;20.82;84.17;97706.72;5033610;28;20494;-74
2023/08/25 06:45:53;;;;;;;5.03;4.63;;;;;;;20.81;83.27;97700.41;5029839;28;20503;-75
2023/08/25 06:48:19;;;;;;;5.37;4.87;;;;;;;20.79;84.29;97722.69;5030257;28;20535;-74
2023/08/25 06:50:48;;;;;;;4.90;4.35;;;;;;;20.80;83.79;97724.34;5037290;28;20486;-74
2023/08/25 06:53:14;;;;;;;5.30;4.80;;;;;;;20.79;84.22;97719.94;5032195;28;20549;-74
2023/08/25 06:55:41;;;;;;;5.57;4.43;;;;;;;20.73;84.56;97726.56;5028638;28;21000;-75
2023/08/25 06:58:08;;;;;;;4.90;4.50;;;;;;;20.70;84.99;97738.13;5031107;28;20447;-73
2023/08/25 07:00:35;;;;;;;5.33;4.90;;;;;;;20.50;85.66;97754.56;5025241;28;20486;-75
2023/08/25 07:03:03;;;;;;;5.95;5.35;;;;;;;20.65;86.17;97742.78;5032939;28;20453;-76
2023/08/25 07:05:30;;;;;;;6.03;5.50;;;;;;;20.56;87.04;97695.75;5029142;28;20227;-76
2023/08/25 07:07:59;;;;;;;7.17;6.50;;;;;;;20.58;87.12;97679.78;5035792;28;20545;-79
2023/08/25 07:10:26;;;;;;;7.43;6.80;;;;;;;20.44;87.44;97698.78;5028291;28;20534;-77
2023/08/25 07:12:53;;;;;;;7.10;6.50;;;;;;;20.14;89.28;97713.25;5028681;28;20462;-74
2023/08/25 07:15:20;;;;;;;6.53;6.03;;;;;;;20.29;88.71;97708.88;5048036;28;21035;-75
2023/08/25 07:17:47;;;;;;;7.83;7.13;;;;;;;20.35;89.14;97707.81;5037675;28;20455;-75
2023/08/25 07:20:14;;;;;;;8.33;7.40;;;;;;;20.11;89.67;97699.25;5041296;28;20800;-74
2023/08/25 07:22:41;;;;;;;8.70;7.93;;;;;;;19.85;89.71;97692.84;5030675;28;20500;-74
2023/08/25 07:25:10;;;;;;;7.20;6.60;;;;;;;19.64;91.31;97740.56;5036839;28;20459;-75
2023/08/25 07:27:36;;;;;;;8.30;7.70;;;;;;;19.68;93.09;97731.53;5041795;28;20456;-76
2023/08/25 07:30:04;;;;;;;10.93;9.87;;;;;;;19.76;93.05;97705.47;5036307;28;20862;-74
2023/08/25 07:32:31;;;;;;;8.00;7.40;;;;;;;19.89;91.69;97704.94;5026243;28;20878;-74
2023/08/25 07:34:58;;;;;;;8.65;7.90;;;;;;;20.00;91.05;97731.38;5033942;28;20452;-79
2023/08/25 07:37:26;;;;;;;9.90;9.00;;;;;;;19.80;91.87;97745.03;5030696;28;20635;-80
2023/08/25 07:39:54;;;;;;;11.03;9.37;;;;;;;19.55;93.16;97784.16;5028704;28;20457;-79
2023/08/25 07:42:23;;;;;;;9.80;9.00;;;;;;;19.30;94.51;97800.47;5034146;28;20456;-79
2023/08/25 07:44:50;;;;;;;9.70;8.80;;;;;;;19.33;95.26;97788.97;5037084;28;21054;-79
2023/08/25 07:47:17;;;;;;;8.40;7.70;;;;;;;19.28;94.80;97800.72;5044475;28;20873;-74
2023/08/25 07:49:43;;;;;;;8.13;7.50;;;;;;;18.96;95.25;97773.31;5032168;28;20483;-77
2023/08/25 07:52:10;;;;;;;8.47;7.77;;;;;;;19.11;95.48;97811.03;5033832;28;20511;-73
2023/08/25 07:54:37;;;;;;;8.73;7.93;;;;;;;19.14;95.43;97802.28;5032597;28;20885;-74
2023/08/25 07:57:04;;;;;;;8.63;7.93;;;;;;;19.20;95.79;97809.44;5033530;28;20461;-74
2023/08/25 07:59:33;;;;;;;9.70;8.90;;;;;;;19.27;95.18;97833.91;5031124;28;20975;-72
2023/08/25 08:01:59;;;;;;;9.07;8.20;;;;;;;19.23;95.58;97860.22;5033566;28;20487;-74
2023/08/25 08:04:26;;;;;;;8.40;7.60;;;;;;;19.23;95.92;97855.56;5034474;28;20529;-74
2023/08/25 08:06:55;;;;;;;9.10;8.40;;;;;;;19.17;96.14;97845.63;5033398;28;20486;-74
2023/08/25 08:09:21;;;;;;;7.63;7.03;;;;;;;19.15;96.17;97838.78;5033086;28;21049;-74
2023/08/25 08:11:48;;;;;;;10.50;9.70;;;;;;;19.05;96.63;97836.78;5033005;28;20517;-75
2023/08/25 08:14:15;;;;;;;11.50;9.30;;;;;;;19.06;97.51;97824.72;5033363;28;20852;-74
2023/08/25 08:16:43;;;;;;;10.60;9.63;;;;;;;19.01;97.60;97814.50;5030305;28;20460;-75
2023/08/25 08:19:12;;;;;;;9.30;8.50;;;;;;;19.05;97.97;97809.34;5032091;28;20502;-75
2023/08/25 08:21:39;;;;;;;9.73;8.93;;;;;;;19.00;97.36;97812.84;5033071;28;20483;-75
2023/08/25 08:24:05;;;;;;;9.80;9.00;;;;;;;18.96;97.71;97810.91;5033129;28;20545;-78
2023/08/25 08:26:32;;;;;;;9.87;8.40;;;;;;;18.89;97.92;97789.16;5033072;28;20446;-76
2023/08/25 08:28:59;;;;;;;7.83;7.20;;;;;;;18.81;97.27;97769.66;5031515;28;20586;-78
2023/08/25 08:31:26;;;;;;;9.90;7.97;;;;;;;18.95;97.54;97811.97;5031058;28;20480;-76
2023/08/25 08:33:54;;;;;;;7.87;7.00;;;;;;;18.90;97.79;97804.53;5037625;28;20461;-81
2023/08/25 08:36:22;;;;;;;7.27;6.77;;;;;;;18.96;97.70;97816.38;5035548;28;20502;-76
2023/08/25 08:38:48;;;;;;;9.00;7.07;;;;;;;18.88;97.63;97803.97;5030164;28;20452;-79
2023/08/25 08:41:16;;;;;;;8.20;7.40;;;;;;;18.85;97.90;97776.25;5030401;28;20483;-76
2023/08/25 08:43:46;;;;;;;7.20;6.50;;;;;;;18.76;98.10;97754.81;5032165;28;20474;-77
2023/08/25 08:46:15;;;;;;;8.03;7.43;;;;;;;18.69;98.61;97709.50;5034307;28;20866;-76
2023/08/25 08:48:43;;;;;;;8.30;7.50;;;;;;;18.69;98.78;97695.78;5036864;28;20491;-75
2023/08/25 08:51:11;;;;;;;7.53;6.83;;;;;;;18.83;98.85;97701.66;5035859;28;20487;-75
2023/08/25 08:53:38;;;;;;;8.80;8.00;;;;;;;18.89;98.56;97687.69;5039138;28;20749;-73
2023/08/25 08:56:05;;;;;;;9.20;8.27;;;;;;;18.88;98.89;97661.34;5038048;28;21025;-78
2023/08/25 08:58:32;;;;;;;9.73;8.93;;;;;;;18.89;98.72;97646.56;5033583;28;20460;-74
2023/08/25 09:01:00;;;;;;;9.50;8.50;;;;;;;18.96;98.98;97640.84;5032419;28;20579;-73
2023/08/25 09:03:31;;;;;;;8.33;7.53;;;;;;;18.99;98.41;97607.41;5029228;28;20517;-73
2023/08/25 09:06:03;;;;;;;8.70;7.70;;;;;;;19.09;98.39;97586.34;5022927;28;20456;-73
2023/08/25 09:08:31;;;;;;;6.90;6.40;;;;;;;18.95;97.93;97545.94;5026344;28;20571;-73
2023/08/25 09:11:04;;;;;;;6.60;6.00;;;;;;;18.88;97.87;97524.25;5031083;28;20899;-73
2023/08/25 09:13:33;;;;;;;6.20;5.60;;;;;;;18.90;97.54;97576.06;5030526;28;20471;-72
2023/08/25 09:16:00;;;;;;;7.00;6.50;;;;;;;19.04;98.05;97615.66;5041022;28;20467;-72
2023/08/25 09:18:34;;;;;;;8.30;7.57;;;;;;;19.03;98.66;97616.75;5034158;28;20479;-73
2023/08/25 09:21:03;;;;;;;7.30;6.70;;;;;;;19.06;98.70;97610.72;5033136;28;20483;-72
2023/08/25 09:23:31;;;;;;;8.73;7.93;;;;;;;19.16;98.30;97594.31;5030074;28;20447;-73
2023/08/25 09:26:05;;;;;;;8.30;7.70;;;;;;;19.29;98.31;97599.28;5027110;28;20455;-73
2023/08/25 09:28:36;;;;;;;9.23;8.50;;;;;;;19.43;98.68;97580.41;5029938;28;20480;-72
2023/08/25 09:31:03;;;;;;;7.77;7.07;;;;;;;19.52;97.80;97575.22;5031436;28;21084;-74
2023/08/25 09:33:30;;;;;;;8.90;8.00;;;;;;;19.51;98.03;97582.63;5028326;28;20999;-72
2023/08/25 09:36:04;;;;;;;8.60;7.90;;;;;;;19.66;97.88;97554.41;5030526;28;20489;-72
2023/08/25 09:38:33;;;;;;;7.57;6.97;;;;;;;19.57;97.19;97520.34;5030738;28;20460;-71
2023/08/25 09:41:00;;;;;;;7.77;6.90;;;;;;;19.61;96.96;97516.78;5037003;28;20482;-77
2023/08/25 09:43:29;;;;;;;7.03;6.43;;;;;;;19.57;96.82;97520.34;5043515;28;20506;-77
2023/08/25 09:45:56;;;;;;;7.20;6.60;;;;;;;19.54;96.98;97527.19;5030118;28;20451;-72
2023/08/25 09:48:25;;;;;;;7.97;7.30;;;;;;;19.64;97.32;97534.63;5030857;28;20452;-72
2023/08/25 09:50:52;;;;;;;7.80;7.20;;;;;;;19.80;96.37;97530.81;5032395;28;20498;-72
2023/08/25 09:53:20;;;;;;;8.30;6.83;;;;;;;19.74;96.00;97521.75;5028977;28;20555;-72
2023/08/25 09:55:50;;;;;;;7.10;6.50;;;;;;;19.92;96.27;97536.84;5030313;28;20852;-72
2023/08/25 09:58:17;;;;;;;7.10;6.60;;;;;;;19.91;95.35;97526.97;5030880;28;20835;-72
2023/08/25 10:00:43;;;;;;;7.00;6.30;;;;;;;19.96;95.07;97537.94;5040874;28;20770;-71
2023/08/25 10:03:11;;;;;;;6.17;5.67;;;;;;;19.99;93.99;97533.84;5031709;28;20466;-76
2023/08/25 10:05:38;;;;;;;6.57;6.07;;;;;;;20.11;94.28;97521.47;5033092;28;20484;-76
2023/08/25 10:08:08;;;;;;;5.83;5.33;;;;;;;20.13;92.90;97533.00;5033562;28;20520;-76
2023/08/25 10:10:36;;;;;;;6.10;5.60;;;;;;;20.10;93.19;97538.22;5046385;28;21057;-75
2023/08/25 10:13:05;;;;;;;6.40;5.90;;;;;;;20.15;93.69;97543.69;5030452;28;20875;-80
2023/08/25 10:15:32;;;;;;;6.17;5.57;;;;;;;20.26;92.74;97533.53;5032409;28;20992;-79
2023/08/25 10:18:01;;;;;;;6.07;4.90;;;;;;;20.36;91.53;97550.00;5045087;28;20449;-79
2023/08/25 10:20:29;;;;;;;5.23;4.80;;;;;;;20.39;90.76;97546.75;5034713;28;20578;-79
2023/08/25 10:22:57;;;;;;;4.73;4.33;;;;;;;20.54;88.89;97579.69;5034108;28;21394;-78
2023/08/25 10:25:29;;;;;;;4.10;3.70;;;;;;;20.67;88.56;97553.56;5029876;28;21167;-77
2023/08/25 10:27:55;;;;;;;5.43;4.40;;;;;;;20.80;87.89;97547.44;5035798;28;20874;-77
2023/08/25 10:30:24;;;;;;;4.40;4.00;;;;;;;20.87;87.62;97555.41;5035346;28;20666;-78
2023/08/25 10:32:52;;;;;;;4.07;3.77;;;;;;;20.97;86.34;97571.91;5030943;28;20457;-77
2023/08/25 10:35:40;;;;;;;4.43;3.70;;;;;;;20.95;85.11;97601.63;5035908;28;20545;-75
2023/08/25 10:38:22;;;;;;;4.27;3.93;;;;;;;21.22;84.76;97629.63;5044063;28;21526;-77
2023/08/25 10:40:50;;;;;;;4.30;3.90;;;;;;;21.51;86.22;97642.72;5032652;28;20485;-77
2023/08/25 10:43:24;;;;;;;4.07;3.70;;;;;;;21.86;85.94;97648.06;5043406;28;20559;-76
2023/08/25 10:45:52;;;;;;;5.00;4.50;;;;;;;21.93;85.22;97656.84;5034142;28;20526;-76
2023/08/25 10:48:20;;;;;;;4.00;3.60;;;;;;;22.10;81.31;97632.50;5035672;28;20463;-79
2023/08/25 10:50:47;;;;;;;3.37;3.17;;;;;;;22.04;79.02;97619.88;5039249;28;20972;-78
2023/08/25 10:53:34;;;;;;;4.17;3.50;;;;;;;22.01;80.52;97628.72;5027669;28;20467;-76
2023/08/25 10:56:13;;;;;;;3.50;3.30;;;;;;;21.78;80.86;97626.59;5031967;28;20543;-75
2023/08/25 10:58:40;;;;;;;3.70;3.40;;;;;;;21.81;79.63;97626.03;5036652;28;20455;-76
2023/08/25 11:01:09;;;;;;;3.50;3.20;;;;;;;21.86;78.15;97617.75;5029703;28;20496;-77
2023/08/25 11:03:48;;;;;;;2.80;2.60;;;;;;;21.88;76.97;97610.03;5030311;28;20543;-73
2023/08/25 11:06:37;;;;;;;3.40;3.10;;;;;;;21.90;78.29;97621.59;5041262;28;20498;-72
2023/08/25 11:09:04;;;;;;;3.20;2.90;;;;;;;21.94;78.15;97603.38;5036739;28;20964;-76
2023/08/25 11:11:32;;;;;;;4.50;2.80;;;;;;;21.94;77.41;97606.13;5039491;28;20525;-73
2023/08/25 11:14:00;;;;;;;3.47;3.17;;;;;;;22.02;77.18;97611.06;5037268;28;20509;-73
2023/08/25 11:16:28;;;;;;;3.43;3.13;;;;;;;21.94;76.56;97614.41;5036299;28;20551;-72
2023/08/25 11:18:55;;;;;;;3.50;3.30;;;;;;;21.89;76.53;97608.91;5036701;28;20520;-73
2023/08/25 11:21:23;;;;;;;3.37;3.17;;;;;;;21.96;75.47;97589.31;5031760;28;20481;-72
2023/08/25 11:23:50;;;;;;;3.50;3.30;;;;;;;21.87;76.27;97586.31;5036485;28;20455;-74
2023/08/25 11:26:17;;;;;;;3.43;3.23;;;;;;;22.02;76.45;97578.00;5035541;28;21031;-73
2023/08/25 11:28:47;;;;;;;3.33;2.93;;;;;;;22.15;74.34;97586.69;5033390;28;20483;-72
2023/08/25 11:31:14;;;;;;;3.33;3.13;;;;;;;22.25;75.40;97594.91;5032164;28;20495;-73
2023/08/25 11:33:42;;;;;;;3.63;3.30;;;;;;;22.51;74.47;97601.84;5031580;28;20804;-73
2023/08/25 11:36:15;;;;;;;4.13;3.30;;;;;;;22.65;73.27;97591.78;5029658;28;20462;-73
2023/08/25 11:38:42;;;;;;;3.73;3.40;;;;;;;22.75;73.22;97590.84;5037861;28;20463;-72